createdAt,value
2022-09-22T00:01:32.426Z,9.81
2022-09-22T00:04:02.709Z,9.68
2022-09-22T00:06:32.146Z,9.70
2022-09-22T00:09:01.579Z,9.39
2022-09-22T00:11:29.946Z,9.50
2022-09-22T00:13:58.346Z,9.56
2022-09-22T00:16:30.528Z,9.52
2022-09-22T00:18:57.668Z,9.47
2022-09-22T00:21:25.582Z,9.41
2022-09-22T00:23:52.520Z,9.05
2022-09-22T00:26:21.969Z,9.26
2022-09-22T00:28:50.194Z,9.29
2022-09-22T00:31:19.277Z,9.27
2022-09-22T00:33:50.984Z,9.18
2022-09-22T00:36:19.898Z,9.20
2022-09-22T00:38:46.528Z,9.19
2022-09-22T00:41:21.040Z,8.72
2022-09-22T00:43:50.060Z,8.03
2022-09-22T00:46:22.592Z,8.63
2022-09-22T00:48:55.648Z,8.71
2022-09-22T00:51:27.330Z,8.99
2022-09-22T00:53:57.539Z,8.76
2022-09-22T00:56:29.380Z,7.78
2022-09-22T00:59:01.304Z,8.43
2022-09-22T01:01:28.047Z,8.19
2022-09-22T01:03:56.589Z,8.84
2022-09-22T01:06:27.474Z,8.69
2022-09-22T01:08:54.945Z,7.95
2022-09-22T01:11:22.744Z,8.75
2022-09-22T01:13:59.458Z,7.75
2022-09-22T01:16:40.512Z,8.20
2022-09-22T01:19:42.875Z,7.71
2022-09-22T01:22:25.091Z,8.64
2022-09-22T01:25:16.141Z,8.68
2022-09-22T01:28:11.133Z,8.68
2022-09-22T01:30:46.518Z,8.68
2022-09-22T01:33:26.447Z,8.70
2022-09-22T01:36:02.925Z,8.71
2022-09-22T01:38:35.851Z,7.90
2022-09-22T01:41:06.190Z,8.11
2022-09-22T01:43:40.489Z,8.47
2022-09-22T01:46:15.500Z,8.64
2022-09-22T01:48:46.163Z,8.57
2022-09-22T01:51:18.317Z,8.59
2022-09-22T01:53:52.336Z,8.56
2022-09-22T01:56:21.723Z,8.54
2022-09-22T01:58:53.529Z,8.54
2022-09-22T02:01:25.929Z,8.34
2022-09-22T02:03:58.310Z,8.48
2022-09-22T02:06:30.873Z,8.52
2022-09-22T02:09:02.463Z,8.52
2022-09-22T02:11:29.091Z,8.55
2022-09-22T02:13:57.293Z,8.56
2022-09-22T02:16:26.068Z,8.56
2022-09-22T02:19:06.035Z,8.54
2022-09-22T02:21:39.755Z,8.52
2022-09-22T02:24:09.190Z,8.41
2022-09-22T02:26:36.689Z,8.48
2022-09-22T02:29:11.251Z,8.47
2022-09-22T02:31:40.331Z,8.45
2022-09-22T02:34:08.033Z,8.41
2022-09-22T02:36:51.901Z,8.35
2022-09-22T02:39:23.346Z,8.38
2022-09-22T02:41:59.556Z,8.29
2022-09-22T02:44:33.939Z,8.31
2022-09-22T02:47:06.154Z,8.31
2022-09-22T02:49:33.502Z,7.59
2022-09-22T02:52:00.261Z,8.32
2022-09-22T02:54:28.212Z,7.64
2022-09-22T02:56:55.128Z,8.32
2022-09-22T02:59:21.716Z,8.18
2022-09-22T03:01:48.405Z,7.86
2022-09-22T03:04:17.086Z,8.22
2022-09-22T03:06:43.798Z,8.20
2022-09-22T03:09:10.482Z,8.17
2022-09-22T03:11:37.220Z,8.14
2022-09-22T03:14:05.454Z,7.96
2022-09-22T03:16:32.140Z,6.80
2022-09-22T03:18:59.180Z,7.28
2022-09-22T03:21:27.292Z,8.08
2022-09-22T03:23:54.172Z,8.07
2022-09-22T03:26:21.758Z,8.09
2022-09-22T03:28:48.431Z,8.09
2022-09-22T03:31:15.460Z,7.53
2022-09-22T03:33:42.465Z,8.09
2022-09-22T03:36:09.114Z,7.92
2022-09-22T03:38:37.238Z,8.05
2022-09-22T03:41:03.957Z,8.02
2022-09-22T03:43:30.618Z,7.99
2022-09-22T03:45:58.333Z,7.97
2022-09-22T03:48:25.514Z,7.94
2022-09-22T03:50:52.442Z,7.90
2022-09-22T03:53:19.553Z,7.92
2022-09-22T03:55:47.604Z,7.90
2022-09-22T03:58:14.316Z,7.88
2022-09-22T04:00:41.004Z,7.86
2022-09-22T04:03:07.667Z,7.85
2022-09-22T04:05:34.431Z,7.84
2022-09-22T04:08:02.555Z,7.68
2022-09-22T04:10:29.198Z,7.83
2022-09-22T04:12:57.199Z,7.82
2022-09-22T04:15:24.129Z,7.76
2022-09-22T04:17:50.787Z,7.79
2022-09-22T04:20:17.498Z,7.79
2022-09-22T04:22:44.123Z,7.73
2022-09-22T04:25:11.021Z,7.77
2022-09-22T04:27:37.966Z,7.77
2022-09-22T04:30:08.377Z,7.75
2022-09-22T04:32:35.349Z,7.51
2022-09-22T04:35:02.226Z,7.70
2022-09-22T04:37:29.145Z,7.68
2022-09-22T04:39:57.953Z,7.39
2022-09-22T04:42:24.694Z,7.67
2022-09-22T04:44:51.349Z,7.67
2022-09-22T04:47:19.348Z,7.45
2022-09-22T04:49:46.230Z,7.46
2022-09-22T04:52:12.935Z,7.68
2022-09-22T04:54:39.544Z,7.68
2022-09-22T04:57:06.235Z,7.66
2022-09-22T04:59:32.948Z,7.66
2022-09-22T05:01:59.577Z,7.29
2022-09-22T05:04:27.836Z,7.63
2022-09-22T05:06:54.634Z,7.60
2022-09-22T05:09:21.519Z,7.52
2022-09-22T05:11:48.168Z,7.65
2022-09-22T05:14:15.106Z,7.57
2022-09-22T05:16:41.775Z,7.63
2022-09-22T05:19:08.444Z,7.63
2022-09-22T05:21:37.220Z,7.41
2022-09-22T05:24:04.342Z,7.56
2022-09-22T05:26:31.106Z,7.61
2022-09-22T05:28:57.777Z,7.61
2022-09-22T05:31:24.449Z,7.61
2022-09-22T05:33:51.118Z,7.61
2022-09-22T05:36:18.038Z,7.62
2022-09-22T05:38:46.347Z,6.58
2022-09-22T05:41:13.002Z,7.24
2022-09-22T05:43:40.224Z,7.59
2022-09-22T05:46:07.274Z,6.76
2022-09-22T05:48:34.057Z,6.48
2022-09-22T05:51:00.782Z,7.21
2022-09-22T05:53:27.580Z,7.38
2022-09-22T05:55:56.136Z,7.71
2022-09-22T05:58:23.799Z,7.39
2022-09-22T06:00:55.904Z,7.77
2022-09-22T06:03:23.283Z,7.48
2022-09-22T06:05:55.102Z,6.86
2022-09-22T06:08:21.980Z,7.13
2022-09-22T06:10:49.239Z,7.14
2022-09-22T06:13:18.862Z,7.70
2022-09-22T06:15:46.425Z,7.95
2022-09-22T06:18:15.260Z,7.98
2022-09-22T06:20:43.088Z,8.02
2022-09-22T06:23:09.895Z,8.06
2022-09-22T06:25:36.600Z,8.10
2022-09-22T06:28:05.856Z,8.15
2022-09-22T06:30:35.980Z,8.19
2022-09-22T06:33:02.832Z,8.25
2022-09-22T06:35:29.717Z,8.32
2022-09-22T06:37:57.047Z,8.38
2022-09-22T06:40:25.944Z,8.18
2022-09-22T06:42:57.131Z,8.48
2022-09-22T06:45:24.007Z,8.54
2022-09-22T06:47:52.144Z,8.53
2022-09-22T06:50:19.001Z,8.64
2022-09-22T06:52:45.650Z,8.72
2022-09-22T06:55:13.659Z,8.79
2022-09-22T06:57:40.563Z,8.58
2022-09-22T07:00:11.235Z,8.91
2022-09-22T07:02:38.147Z,8.97
2022-09-22T07:05:07.049Z,8.99
2022-09-22T07:07:35.661Z,8.16
2022-09-22T07:10:02.591Z,8.81
2022-09-22T07:12:29.476Z,8.80
2022-09-22T07:15:01.422Z,9.06
2022-09-22T07:17:28.253Z,8.73
2022-09-22T07:19:55.066Z,9.38
2022-09-22T07:22:35.809Z,9.55
2022-09-22T07:25:02.753Z,8.35
2022-09-22T07:27:34.256Z,9.64
2022-09-22T07:30:00.740Z,9.72
2022-09-22T07:32:27.609Z,8.94
2022-09-22T07:34:54.586Z,9.07
2022-09-22T07:37:21.392Z,9.57
2022-09-22T07:39:49.768Z,9.86
2022-09-22T07:42:16.733Z,9.57
2022-09-22T07:44:45.436Z,9.16
2022-09-22T07:47:12.231Z,9.91
2022-09-22T07:49:40.349Z,9.33
2022-09-22T07:52:07.019Z,9.96
2022-09-22T07:54:33.935Z,10.15
2022-09-22T07:57:02.361Z,10.61
2022-09-22T07:59:30.177Z,10.04
2022-09-22T08:01:57.247Z,10.69
2022-09-22T08:04:24.361Z,10.04
2022-09-22T08:06:53.262Z,10.68
2022-09-22T08:09:20.444Z,11.17
2022-09-22T08:11:47.223Z,10.83
2022-09-22T08:14:16.799Z,11.36
2022-09-22T08:16:44.547Z,11.44
2022-09-22T08:19:13.040Z,11.51
2022-09-22T08:21:48.440Z,11.61
2022-09-22T08:24:17.142Z,11.66
2022-09-22T08:26:48.039Z,11.79
2022-09-22T08:29:16.410Z,11.89
2022-09-22T08:31:43.206Z,11.98
2022-09-22T08:34:10.049Z,11.76
2022-09-22T08:36:37.544Z,12.13
2022-09-22T08:39:06.588Z,12.30
2022-09-22T08:41:42.295Z,12.40
2022-09-22T08:44:20.073Z,12.49
2022-09-22T08:46:47.601Z,12.57
2022-09-22T08:49:18.451Z,12.71
2022-09-22T08:51:51.856Z,12.30
2022-09-22T08:54:19.434Z,12.84
2022-09-22T08:56:52.548Z,11.97
2022-09-22T08:59:24.026Z,12.65
2022-09-22T09:02:01.357Z,13.14
2022-09-22T09:04:53.595Z,13.19
2022-09-22T09:07:29.006Z,12.43
2022-09-22T09:10:08.269Z,12.61
2022-09-22T09:12:52.433Z,13.45
2022-09-22T09:15:44.174Z,13.51
2022-09-22T09:18:14.365Z,13.78
2022-09-22T09:20:44.932Z,13.92
2022-09-22T09:23:16.564Z,14.04
2022-09-22T09:25:44.197Z,14.09
2022-09-22T09:28:14.155Z,14.20
2022-09-22T09:30:46.132Z,14.23
2022-09-22T09:33:23.524Z,14.19
2022-09-22T09:35:51.757Z,14.59
2022-09-22T09:38:25.940Z,14.05
2022-09-22T09:40:58.599Z,13.96
2022-09-22T09:43:26.991Z,14.32
2022-09-22T09:46:13.002Z,14.99
2022-09-22T09:48:57.887Z,15.05
2022-09-22T09:51:41.228Z,15.19
2022-09-22T09:54:11.897Z,14.72
2022-09-22T09:57:07.786Z,14.54
2022-09-22T09:59:35.876Z,15.45
2022-09-22T10:02:04.553Z,15.80
2022-09-22T10:04:33.944Z,16.50
2022-09-22T10:07:12.097Z,17.43
2022-09-22T10:09:40.812Z,18.31
2022-09-22T10:12:22.026Z,19.09
2022-09-22T10:14:50.806Z,19.80
2022-09-22T10:17:23.203Z,20.52
2022-09-22T10:19:50.289Z,21.20
2022-09-22T10:22:23.870Z,21.86
2022-09-22T10:24:57.848Z,22.23
2022-09-22T10:27:27.435Z,22.80
2022-09-22T10:30:13.128Z,23.18
2022-09-22T10:32:41.805Z,23.38
2022-09-22T10:35:26.774Z,23.75
2022-09-22T10:37:57.332Z,23.95
2022-09-22T10:40:27.001Z,24.13
2022-09-22T10:42:59.847Z,24.67
2022-09-22T10:45:40.612Z,24.87
2022-09-22T10:48:15.088Z,25.15
2022-09-22T10:51:03.041Z,25.47
2022-09-22T10:53:38.711Z,25.72
2022-09-22T10:56:14.520Z,25.70
2022-09-22T10:58:59.198Z,25.95
2022-09-22T11:01:40.928Z,25.67
2022-09-22T11:04:40.379Z,25.24
2022-09-22T11:07:24.920Z,25.19
2022-09-22T11:10:02.839Z,24.91
2022-09-22T11:12:45.129Z,24.37
2022-09-22T11:15:41.403Z,24.02
2022-09-22T11:18:27.913Z,23.73
2022-09-22T11:21:05.101Z,23.66
2022-09-22T11:23:59.765Z,23.46
2022-09-22T11:26:45.899Z,23.56
2022-09-22T11:29:48.090Z,23.40
2022-09-22T11:32:31.080Z,23.68
2022-09-22T11:35:21.001Z,24.17
2022-09-22T11:38:02.489Z,24.35
2022-09-22T11:41:03.484Z,24.61
2022-09-22T11:43:58.554Z,24.47
2022-09-22T11:46:37.800Z,24.89
2022-09-22T11:49:15.544Z,25.03
2022-09-22T11:51:58.253Z,24.93
2022-09-22T11:54:46.844Z,23.65
2022-09-22T11:57:21.424Z,23.70
2022-09-22T11:59:53.502Z,24.44
2022-09-22T12:02:26.087Z,23.99
2022-09-22T12:04:59.247Z,23.79
2022-09-22T12:07:30.090Z,23.64
2022-09-22T12:10:02.811Z,23.38
2022-09-22T12:12:33.325Z,23.35
2022-09-22T12:15:07.563Z,22.58
2022-09-22T12:17:41.046Z,23.21
2022-09-22T12:20:21.543Z,22.19
2022-09-22T12:23:25.385Z,22.63
2022-09-22T12:25:54.449Z,22.29
2022-09-22T12:28:25.682Z,22.89
2022-09-22T12:30:58.987Z,22.63
2022-09-22T12:33:27.042Z,22.72
2022-09-22T12:35:56.804Z,22.67
2022-09-22T12:38:24.650Z,22.84
2022-09-22T12:40:54.422Z,22.74
2022-09-22T12:43:23.671Z,22.65
2022-09-22T12:45:54.130Z,22.68
2022-09-22T12:48:23.725Z,22.49
2022-09-22T12:50:50.869Z,22.67
2022-09-22T12:53:25.851Z,22.87
2022-09-22T12:55:53.640Z,22.63
2022-09-22T12:58:41.691Z,22.60
2022-09-22T13:01:42.271Z,22.49
2022-09-22T13:04:17.588Z,22.54
2022-09-22T13:06:55.453Z,22.46
2022-09-22T13:09:25.062Z,22.64
2022-09-22T13:12:21.336Z,22.62
2022-09-22T13:15:16.250Z,22.63
2022-09-22T13:17:46.375Z,22.59
2022-09-22T13:20:18.605Z,22.45
2022-09-22T13:22:45.600Z,22.46
2022-09-22T13:25:26.994Z,22.49
2022-09-22T13:28:04.035Z,22.52
2022-09-22T13:30:32.390Z,22.42
2022-09-22T13:33:00.839Z,22.06
2022-09-22T13:35:30.596Z,22.35
2022-09-22T13:38:00.463Z,22.47
2022-09-22T13:40:29.223Z,22.53
2022-09-22T13:43:00.150Z,22.47
2022-09-22T13:45:27.047Z,22.73
2022-09-22T13:48:03.643Z,22.87
2022-09-22T13:50:39.991Z,22.99
2022-09-22T13:53:07.365Z,22.79
2022-09-22T13:55:35.992Z,22.94
2022-09-22T13:58:04.139Z,23.06
2022-09-22T14:01:01.417Z,23.48
2022-09-22T14:03:36.582Z,23.69
2022-09-22T14:06:04.444Z,23.97
2022-09-22T14:08:32.812Z,24.25
2022-09-22T14:11:00.778Z,24.53
2022-09-22T14:13:44.856Z,24.72
2022-09-22T14:16:23.406Z,24.85
2022-09-22T14:18:59.622Z,24.94
2022-09-22T14:21:26.461Z,24.84
2022-09-22T14:23:53.229Z,24.90
2022-09-22T14:26:28.439Z,24.70
2022-09-22T14:28:56.540Z,24.90
2022-09-22T14:31:27.716Z,24.95
2022-09-22T14:33:57.028Z,24.89
2022-09-22T14:36:25.573Z,24.92
2022-09-22T14:39:10.334Z,24.87
2022-09-22T14:41:39.500Z,24.76
2022-09-22T14:44:23.520Z,24.58
2022-09-22T14:46:54.716Z,24.62
2022-09-22T14:49:36.770Z,24.26
2022-09-22T14:52:05.734Z,23.96
2022-09-22T14:54:33.871Z,24.10
2022-09-22T14:57:05.547Z,24.10
2022-09-22T14:59:35.921Z,24.28
2022-09-22T15:02:10.747Z,24.36
2022-09-22T15:04:54.336Z,23.63
2022-09-22T15:07:29.278Z,24.31
2022-09-22T15:10:32.003Z,24.87
2022-09-22T15:13:28.638Z,23.88
2022-09-22T15:15:59.166Z,23.84
2022-09-22T15:18:30.948Z,24.19
2022-09-22T15:21:15.256Z,24.04
2022-09-22T15:23:50.371Z,24.03
2022-09-22T15:26:25.243Z,24.15
2022-09-22T15:28:59.513Z,23.96
2022-09-22T15:31:30.410Z,23.40
2022-09-22T15:37:02.770Z,23.44
2022-09-22T15:39:30.609Z,23.11
2022-09-22T15:42:00.833Z,23.58
2022-09-22T15:44:34.011Z,22.66
2022-09-22T15:47:01.062Z,22.73
2022-09-22T15:49:38.353Z,23.12
2022-09-22T15:52:10.215Z,22.16
2022-09-22T15:54:37.062Z,22.50
2022-09-22T15:57:08.543Z,22.89
2022-09-22T15:59:37.019Z,21.92
2022-09-22T16:02:10.732Z,22.44
2022-09-22T16:05:01.498Z,21.76
2022-09-22T16:07:30.012Z,21.24
2022-09-22T16:09:56.765Z,20.86
2022-09-22T16:15:30.470Z,20.88
2022-09-22T16:17:57.154Z,20.33
2022-09-22T16:20:23.949Z,19.70
2022-09-22T16:22:52.374Z,20.04
2022-09-22T16:25:19.416Z,19.49
2022-09-22T16:27:46.134Z,19.56
2022-09-22T16:30:15.295Z,19.64
2022-09-22T16:32:42.050Z,19.56
2022-09-22T16:35:09.643Z,20.06
2022-09-22T16:37:36.375Z,19.95
2022-09-22T16:40:05.918Z,19.87
2022-09-22T16:42:32.622Z,19.79
2022-09-22T16:44:59.853Z,19.70
2022-09-22T16:47:26.667Z,19.56
2022-09-22T16:49:53.331Z,19.43
2022-09-22T16:52:20.018Z,19.28
2022-09-22T16:54:46.820Z,19.19
2022-09-22T16:57:20.298Z,19.07
2022-09-22T16:59:47.036Z,18.08
2022-09-22T17:02:14.364Z,17.68
2022-09-22T17:04:54.275Z,18.42
2022-09-22T17:07:24.420Z,18.29
2022-09-22T17:09:54.233Z,17.14
2022-09-22T17:12:25.738Z,17.21
2022-09-22T17:14:52.345Z,17.83
2022-09-22T17:17:19.117Z,16.82
2022-09-22T17:19:45.758Z,16.66
2022-09-22T17:22:12.549Z,17.10
2022-09-22T17:24:39.389Z,17.14
2022-09-22T17:27:06.230Z,17.28
2022-09-22T17:29:34.896Z,17.21
2022-09-22T17:32:12.191Z,17.09
2022-09-22T17:34:39.475Z,16.95
2022-09-22T17:37:06.356Z,16.85
2022-09-22T17:39:36.261Z,16.04
2022-09-22T17:42:03.289Z,16.65
2022-09-22T17:44:42.155Z,16.25
2022-09-22T17:47:09.034Z,15.75
2022-09-22T17:49:36.361Z,15.92
2022-09-22T17:52:08.154Z,16.24
2022-09-22T17:54:36.971Z,15.89
2022-09-22T17:57:04.931Z,15.96
2022-09-22T17:59:31.723Z,15.38
2022-09-22T18:02:00.352Z,15.91
2022-09-22T18:04:28.257Z,15.83
2022-09-22T18:07:18.039Z,15.73
2022-09-22T18:09:46.570Z,14.42
2022-09-22T18:12:16.571Z,14.42
2022-09-22T18:14:46.041Z,15.47
2022-09-22T18:17:18.341Z,14.41
2022-09-22T18:19:45.929Z,14.60
2022-09-22T18:22:15.241Z,14.72
2022-09-22T18:24:42.175Z,13.86
2022-09-22T18:27:18.358Z,14.99
2022-09-22T18:29:45.320Z,14.91
2022-09-22T18:32:12.767Z,14.48
2022-09-22T18:34:41.030Z,13.70
2022-09-22T18:37:07.732Z,14.11
2022-09-22T18:39:34.739Z,14.76
2022-09-22T18:42:02.056Z,14.57
2022-09-22T18:44:29.303Z,14.13
2022-09-22T18:46:56.419Z,14.67
2022-09-22T18:49:23.205Z,14.62
2022-09-22T18:51:52.974Z,14.53
2022-09-22T18:54:20.837Z,14.55
2022-09-22T18:56:48.915Z,14.47
2022-09-22T18:59:17.881Z,13.94
2022-09-22T19:01:45.220Z,14.43
2022-09-22T19:04:14.324Z,13.83
2022-09-22T19:06:40.992Z,13.55
2022-09-22T19:09:09.235Z,14.30
2022-09-22T19:11:36.076Z,14.27
2022-09-22T19:14:02.675Z,14.20
2022-09-22T19:16:29.662Z,14.10
2022-09-22T19:18:56.242Z,14.13
2022-09-22T19:21:22.858Z,14.02
2022-09-22T19:23:49.768Z,14.07
2022-09-22T19:26:19.332Z,14.03
2022-09-22T19:28:45.931Z,13.83
2022-09-22T19:31:12.903Z,13.34
2022-09-22T19:33:39.663Z,13.89
2022-09-22T19:36:06.823Z,13.64
2022-09-22T19:38:34.835Z,13.80
2022-09-22T19:41:01.546Z,13.15
2022-09-22T19:43:29.715Z,13.73
2022-09-22T19:45:56.984Z,13.31
2022-09-22T19:48:24.377Z,13.67
2022-09-22T19:50:51.210Z,13.62
2022-09-22T19:53:20.563Z,13.60
2022-09-22T19:55:47.241Z,13.47
2022-09-22T19:58:14.020Z,13.41
2022-09-22T20:00:42.151Z,13.54
2022-09-22T20:03:10.354Z,13.35
2022-09-22T20:05:40.005Z,12.62
2022-09-22T20:08:08.971Z,12.59
2022-09-22T20:10:35.758Z,13.41
2022-09-22T20:13:02.462Z,13.30
2022-09-22T20:15:29.263Z,12.90
2022-09-22T20:17:58.209Z,12.63
2022-09-22T20:20:25.750Z,12.43
2022-09-22T20:22:59.802Z,12.79
2022-09-22T20:25:30.316Z,12.69
2022-09-22T20:27:58.900Z,12.15
2022-09-22T20:30:25.513Z,12.99
2022-09-22T20:32:52.814Z,13.21
2022-09-22T20:35:21.021Z,13.22
2022-09-22T20:37:47.683Z,13.19
2022-09-22T20:40:16.538Z,12.49
2022-09-22T20:42:43.619Z,12.83
2022-09-22T20:45:11.215Z,13.15
2022-09-22T20:47:37.975Z,13.14
2022-09-22T20:50:05.932Z,12.91
2022-09-22T20:52:34.476Z,13.13
2022-09-22T20:55:01.220Z,13.05
2022-09-22T20:57:28.483Z,13.11
2022-09-22T20:59:55.148Z,13.09
2022-09-22T21:02:21.873Z,12.93
2022-09-22T21:04:49.074Z,13.06
2022-09-22T21:07:16.103Z,13.06
2022-09-22T21:09:44.884Z,12.97
2022-09-22T21:12:14.101Z,12.92
2022-09-22T21:14:40.953Z,13.02
2022-09-22T21:17:09.095Z,12.64
2022-09-22T21:19:36.079Z,13.00
2022-09-22T21:22:03.159Z,12.09
2022-09-22T21:24:33.354Z,12.97
2022-09-22T21:27:02.815Z,12.15
2022-09-22T21:29:31.541Z,12.94
2022-09-22T21:31:59.661Z,12.52
2022-09-22T21:34:26.489Z,12.55
2022-09-22T21:36:53.174Z,11.91
2022-09-22T21:39:19.853Z,11.94
2022-09-22T21:41:46.618Z,12.23
2022-09-22T21:44:14.814Z,11.77
2022-09-22T21:46:41.682Z,12.18
2022-09-22T21:49:09.258Z,12.69
2022-09-22T21:51:37.247Z,12.85
2022-09-22T21:54:05.405Z,12.83
2022-09-22T21:56:33.806Z,12.80
2022-09-22T21:59:00.856Z,12.59
2022-09-22T22:01:30.678Z,12.72
2022-09-22T22:03:59.074Z,12.74
2022-09-22T22:06:27.473Z,12.70
2022-09-22T22:08:56.366Z,12.68
2022-09-22T22:11:24.990Z,12.65
2022-09-22T22:13:54.549Z,12.62
2022-09-22T22:16:23.299Z,12.36
2022-09-22T22:18:52.036Z,12.36
2022-09-22T22:21:21.480Z,12.55
2022-09-22T22:23:50.178Z,12.52
2022-09-22T22:26:19.420Z,12.49
2022-09-22T22:28:48.329Z,12.47
2022-09-22T22:31:17.307Z,12.44
2022-09-22T22:33:45.360Z,12.42
2022-09-22T22:36:15.930Z,12.39
2022-09-22T22:38:44.124Z,12.30
2022-09-22T22:41:17.274Z,12.17
2022-09-22T22:43:44.760Z,12.29
2022-09-22T22:46:12.429Z,12.30
2022-09-22T22:48:39.301Z,12.27
2022-09-22T22:51:07.966Z,12.26
2022-09-22T22:53:35.988Z,12.23
2022-09-22T22:56:05.117Z,12.21
2022-09-22T22:58:35.348Z,12.19
2022-09-22T23:01:03.653Z,12.01
2022-09-22T23:03:30.561Z,11.33
2022-09-22T23:05:58.189Z,12.13
2022-09-22T23:08:25.962Z,11.25
2022-09-22T23:11:00.993Z,12.16
2022-09-22T23:13:28.105Z,11.11
2022-09-22T23:16:02.912Z,11.45
2022-09-22T23:18:30.871Z,11.44
2022-09-22T23:20:57.751Z,12.00
2022-09-22T23:23:24.677Z,11.97
2022-09-22T23:25:51.825Z,12.07
2022-09-22T23:28:20.425Z,12.07
2022-09-22T23:30:47.489Z,12.06
2022-09-22T23:33:14.353Z,11.58
2022-09-22T23:35:41.223Z,12.04
2022-09-22T23:38:09.173Z,11.96
2022-09-22T23:40:36.039Z,11.95
2022-09-22T23:43:03.495Z,11.99
2022-09-22T23:45:31.830Z,11.93
2022-09-22T23:47:59.782Z,11.95
2022-09-22T23:50:26.395Z,11.95
2022-09-22T23:52:53.099Z,11.92
2022-09-22T23:55:20.057Z,11.90
2022-09-22T23:57:47.404Z,11.59
